createdAt,value
2023-04-19T00:02:13.938Z,18.86
2023-04-19T00:04:41.938Z,18.67
2023-04-19T00:07:08.842Z,18.61
2023-04-19T00:09:35.612Z,18.83
2023-04-19T00:12:03.227Z,18.78
2023-04-19T00:14:30.046Z,18.37
2023-04-19T00:16:56.985Z,18.76
2023-04-19T00:19:23.739Z,18.74
2023-04-19T00:21:50.819Z,18.57
2023-04-19T00:24:18.171Z,18.70
2023-04-19T00:26:44.909Z,18.77
2023-04-19T00:29:11.843Z,18.78
2023-04-19T00:31:39.966Z,18.74
2023-04-19T00:34:07.222Z,18.24
2023-04-19T00:36:34.124Z,18.64
2023-04-19T00:39:01.093Z,18.74
2023-04-19T00:41:27.814Z,18.72
2023-04-19T00:43:54.724Z,18.62
2023-04-19T00:46:22.006Z,18.51
2023-04-19T00:48:48.958Z,18.59
2023-04-19T00:51:16.023Z,18.50
2023-04-19T00:53:43.062Z,18.51
2023-04-19T00:56:09.903Z,18.30
2023-04-19T00:58:38.055Z,18.42
2023-04-19T01:01:04.843Z,18.31
2023-04-19T01:03:31.830Z,18.36
2023-04-19T01:05:58.816Z,18.33
2023-04-19T01:08:25.663Z,17.97
2023-04-19T01:10:52.406Z,17.76
2023-04-19T01:13:19.221Z,17.65
2023-04-19T01:15:46.252Z,18.12
2023-04-19T01:18:14.158Z,18.02
2023-04-19T01:20:41.120Z,17.92
2023-04-19T01:23:11.787Z,16.80
2023-04-19T01:25:39.192Z,17.24
2023-04-19T01:28:06.498Z,17.32
2023-04-19T01:30:33.322Z,17.43
2023-04-19T01:33:00.244Z,17.36
2023-04-19T01:35:27.179Z,17.35
2023-04-19T01:37:56.344Z,17.10
2023-04-19T01:40:24.957Z,17.02
2023-04-19T01:42:51.997Z,17.03
2023-04-19T01:45:18.837Z,16.75
2023-04-19T01:47:45.630Z,16.92
2023-04-19T01:50:12.428Z,16.92
2023-04-19T01:52:39.238Z,16.73
2023-04-19T01:55:06.188Z,16.83
2023-04-19T01:57:32.999Z,16.91
2023-04-19T01:59:59.857Z,16.71
2023-04-19T02:02:27.164Z,16.56
2023-04-19T02:04:54.236Z,16.73
2023-04-19T02:07:21.102Z,16.94
2023-04-19T02:09:48.041Z,16.60
2023-04-19T02:12:14.919Z,16.85
2023-04-19T02:14:41.803Z,16.76
2023-04-19T02:17:08.659Z,16.43
2023-04-19T02:19:35.507Z,16.58
2023-04-19T02:22:02.251Z,16.51
2023-04-19T02:24:28.971Z,16.49
2023-04-19T02:26:55.831Z,16.46
2023-04-19T02:29:22.730Z,16.40
2023-04-19T02:31:50.290Z,16.33
2023-04-19T02:34:17.380Z,16.33
2023-04-19T02:36:44.354Z,16.43
2023-04-19T02:39:11.073Z,16.37
2023-04-19T02:41:46.999Z,16.31
2023-04-19T02:44:13.788Z,16.18
2023-04-19T02:46:40.888Z,16.22
2023-04-19T02:49:07.772Z,16.21
2023-04-19T02:51:34.546Z,16.20
2023-04-19T02:54:01.342Z,16.06
2023-04-19T02:56:28.268Z,16.18
2023-04-19T02:58:55.242Z,16.18
2023-04-19T03:01:22.110Z,15.96
2023-04-19T03:03:49.234Z,16.23
2023-04-19T03:06:17.059Z,15.97
2023-04-19T03:08:43.851Z,15.84
2023-04-19T03:11:11.783Z,15.78
2023-04-19T03:13:39.830Z,15.92
2023-04-19T03:16:07.410Z,15.99
2023-04-19T03:18:34.482Z,15.63
2023-04-19T03:21:03.563Z,15.86
2023-04-19T03:23:30.326Z,15.75
2023-04-19T03:25:57.457Z,15.57
2023-04-19T03:28:24.194Z,15.54
2023-04-19T03:30:50.937Z,15.53
2023-04-19T03:33:18.878Z,15.21
2023-04-19T03:35:45.845Z,15.26
2023-04-19T03:38:12.627Z,15.49
2023-04-19T03:40:39.407Z,15.19
2023-04-19T03:43:06.133Z,15.55
2023-04-19T03:45:32.896Z,15.39
2023-04-19T03:48:01.387Z,15.30
2023-04-19T03:50:29.633Z,15.63
2023-04-19T03:52:56.748Z,15.35
2023-04-19T03:55:23.593Z,15.70
2023-04-19T03:57:50.423Z,15.60
2023-04-19T04:00:18.602Z,15.81
2023-04-19T04:02:45.680Z,15.76
2023-04-19T04:05:12.789Z,15.45
2023-04-19T04:07:39.799Z,15.87
2023-04-19T04:10:07.289Z,15.75
2023-04-19T04:12:34.029Z,15.89
2023-04-19T04:15:01.037Z,15.43
2023-04-19T04:17:27.816Z,15.68
2023-04-19T04:19:54.646Z,15.75
2023-04-19T04:22:21.714Z,15.67
2023-04-19T04:24:49.333Z,15.59
2023-04-19T04:27:20.469Z,15.60
2023-04-19T04:29:47.656Z,15.82
2023-04-19T04:32:15.731Z,15.64
2023-04-19T04:34:43.156Z,15.73
2023-04-19T04:37:10.061Z,15.58
2023-04-19T04:39:39.456Z,15.36
2023-04-19T04:42:08.929Z,15.28
2023-04-19T04:44:36.444Z,15.10
2023-04-19T04:47:03.300Z,15.17
2023-04-19T04:49:30.588Z,15.03
2023-04-19T04:51:57.384Z,14.20
2023-04-19T04:54:24.775Z,15.12
2023-04-19T04:56:51.779Z,14.97
2023-04-19T04:59:19.158Z,14.27
2023-04-19T05:01:46.380Z,14.79
2023-04-19T05:04:13.293Z,14.56
2023-04-19T05:06:41.529Z,14.42
2023-04-19T05:09:08.350Z,14.48
2023-04-19T05:11:35.114Z,14.37
2023-04-19T05:14:02.756Z,14.66
2023-04-19T05:16:29.666Z,14.61
2023-04-19T05:18:56.685Z,14.00
2023-04-19T05:21:23.649Z,14.53
2023-04-19T05:23:53.923Z,14.50
2023-04-19T05:26:20.756Z,14.34
2023-04-19T05:28:47.743Z,14.48
2023-04-19T05:31:14.678Z,14.27
2023-04-19T05:33:41.664Z,14.44
2023-04-19T05:36:09.051Z,14.10
2023-04-19T05:38:35.960Z,13.92
2023-04-19T05:41:03.747Z,13.18
2023-04-19T05:43:30.742Z,14.03
2023-04-19T05:45:57.930Z,13.60
2023-04-19T05:48:25.641Z,14.20
2023-04-19T05:50:57.666Z,14.27
2023-04-19T05:53:24.389Z,14.29
2023-04-19T05:55:52.323Z,14.32
2023-04-19T05:58:19.453Z,14.32
2023-04-19T06:00:48.813Z,14.14
2023-04-19T06:03:16.189Z,14.29
2023-04-19T06:05:43.550Z,14.32
2023-04-19T06:08:10.343Z,14.27
2023-04-19T06:13:16.081Z,13.75
2023-04-19T06:15:43.002Z,13.86
2023-04-19T06:18:10.416Z,13.70
2023-04-19T06:20:46.568Z,13.84
2023-04-19T06:23:15.060Z,13.71
2023-04-19T06:25:42.000Z,14.00
2023-04-19T06:28:08.998Z,14.13
2023-04-19T06:30:35.758Z,14.15
2023-04-19T06:33:02.614Z,14.20
2023-04-19T06:35:29.721Z,14.68
2023-04-19T06:37:56.477Z,14.76
2023-04-19T06:40:23.347Z,14.98
2023-04-19T06:42:50.230Z,15.17
2023-04-19T06:45:17.099Z,15.05
2023-04-19T06:47:44.002Z,14.92
2023-04-19T06:50:11.430Z,15.37
2023-04-19T06:52:38.895Z,15.68
2023-04-19T06:55:07.258Z,15.92
2023-04-19T06:57:34.139Z,15.78
2023-04-19T07:00:01.182Z,16.11
2023-04-19T07:02:28.062Z,16.58
2023-04-19T07:04:55.258Z,16.71
2023-04-19T07:07:22.095Z,16.71
2023-04-19T07:09:48.787Z,16.95
2023-04-19T07:12:15.675Z,17.02
2023-04-19T07:14:42.424Z,17.17
2023-04-19T07:17:09.158Z,17.32
2023-04-19T07:19:36.583Z,17.40
2023-04-19T07:22:03.741Z,17.25
2023-04-19T07:24:30.542Z,17.48
2023-04-19T07:26:57.829Z,17.36
2023-04-19T07:29:24.674Z,17.37
2023-04-19T07:31:51.600Z,17.24
2023-04-19T07:34:18.643Z,17.68
2023-04-19T07:36:45.503Z,17.84
2023-04-19T07:39:13.673Z,17.93
2023-04-19T07:41:40.653Z,18.12
2023-04-19T07:44:07.447Z,18.16
2023-04-19T07:46:34.480Z,18.18
2023-04-19T07:49:01.592Z,18.39
2023-04-19T07:51:28.517Z,18.69
2023-04-19T07:53:55.563Z,18.76
2023-04-19T07:56:22.483Z,19.24
2023-04-19T07:59:04.487Z,19.36
2023-04-19T08:01:35.170Z,19.30
2023-04-19T08:04:02.139Z,19.25
2023-04-19T08:06:30.741Z,19.33
2023-04-19T08:08:57.815Z,19.17
2023-04-19T08:11:25.539Z,19.53
2023-04-19T08:14:06.190Z,19.64
2023-04-19T08:19:05.718Z,20.19
2023-04-19T08:21:40.645Z,20.29
2023-04-19T08:24:08.425Z,20.29
2023-04-19T08:26:35.571Z,20.20
2023-04-19T08:29:02.562Z,20.62
2023-04-19T08:31:29.553Z,20.62
2023-04-19T08:33:57.148Z,20.69
2023-04-19T08:36:35.939Z,20.82
2023-04-19T08:39:12.525Z,21.04
2023-04-19T08:41:48.086Z,21.09
2023-04-19T08:44:25.337Z,21.39
2023-04-19T08:47:01.303Z,21.45
2023-04-19T08:49:28.669Z,21.58
2023-04-19T08:51:55.848Z,21.81
2023-04-19T08:54:22.583Z,22.05
2023-04-19T08:56:49.499Z,22.41
2023-04-19T08:59:19.674Z,22.45
2023-04-19T09:01:47.014Z,22.54
2023-04-19T09:04:31.749Z,22.73
2023-04-19T09:07:00.896Z,22.84
2023-04-19T09:09:37.258Z,23.22
2023-04-19T09:12:18.401Z,23.40
2023-04-19T09:17:17.205Z,23.97
2023-04-19T09:19:48.504Z,24.18
2023-04-19T09:22:15.384Z,24.35
2023-04-19T09:27:12.595Z,24.56
2023-04-19T09:29:39.804Z,24.16
2023-04-19T09:32:06.712Z,24.63
2023-04-19T09:34:33.719Z,24.83
2023-04-19T09:37:22.808Z,25.02
2023-04-19T09:39:59.833Z,25.02
2023-04-19T09:43:05.441Z,25.22
2023-04-19T09:45:46.086Z,25.61
2023-04-19T09:48:13.378Z,25.99
2023-04-19T09:50:59.016Z,26.27
2023-04-19T09:53:48.636Z,26.41
2023-04-19T09:56:15.494Z,26.77
2023-04-19T09:58:49.623Z,26.84
2023-04-19T10:01:19.472Z,27.13
2023-04-19T10:03:46.795Z,27.01
2023-04-19T10:06:40.004Z,27.28
2023-04-19T10:09:04.568Z,27.25
2023-04-19T10:11:39.195Z,27.41
2023-04-19T10:14:08.138Z,27.51
2023-04-19T10:16:35.779Z,27.64
2023-04-19T10:19:10.675Z,27.62
2023-04-19T10:21:37.559Z,27.87
2023-04-19T10:24:05.016Z,27.67
2023-04-19T10:26:31.965Z,27.83
2023-04-19T10:28:59.154Z,27.80
2023-04-19T10:31:26.703Z,27.84
2023-04-19T10:33:53.771Z,27.65
2023-04-19T10:36:21.361Z,27.68
2023-04-19T10:38:49.584Z,27.20
2023-04-19T10:41:18.296Z,28.16
2023-04-19T10:44:09.838Z,27.99
2023-04-19T10:46:38.649Z,28.30
2023-04-19T10:49:06.010Z,28.25
2023-04-19T10:51:37.046Z,28.37
2023-04-19T10:54:05.207Z,28.53
2023-04-19T10:56:34.925Z,28.72
2023-04-19T10:59:08.259Z,29.08
2023-04-19T11:01:40.045Z,29.63
2023-04-19T11:04:07.751Z,29.96
2023-04-19T11:06:34.843Z,30.17
2023-04-19T11:09:03.352Z,30.20
2023-04-19T11:11:30.081Z,30.20
2023-04-19T11:13:58.144Z,29.96
2023-04-19T11:16:38.307Z,29.83
2023-04-19T11:19:18.939Z,29.82
2023-04-19T11:21:46.654Z,29.77
2023-04-19T11:24:13.514Z,29.66
2023-04-19T11:26:40.449Z,29.68
2023-04-19T11:29:07.285Z,29.32
2023-04-19T11:31:34.157Z,29.43
2023-04-19T11:34:01.319Z,29.54
2023-04-19T11:36:28.442Z,29.62
2023-04-19T11:38:55.249Z,29.42
2023-04-19T11:41:22.580Z,29.63
2023-04-19T11:43:49.329Z,29.82
2023-04-19T11:46:16.298Z,29.91
2023-04-19T11:48:53.542Z,30.21
2023-04-19T11:51:20.630Z,30.44
2023-04-19T11:53:47.463Z,30.63
2023-04-19T11:56:15.658Z,30.71
2023-04-19T11:58:45.146Z,31.20
2023-04-19T12:01:13.720Z,31.53
2023-04-19T12:03:47.496Z,31.70
2023-04-19T12:06:33.499Z,31.86
2023-04-19T12:09:00.386Z,31.78
2023-04-19T12:11:45.527Z,32.11
2023-04-19T12:14:13.856Z,32.39
2023-04-19T12:16:41.125Z,32.50
2023-04-19T12:19:18.659Z,32.89
2023-04-19T12:21:46.272Z,33.30
2023-04-19T12:24:15.448Z,33.49
2023-04-19T12:26:56.352Z,33.67
2023-04-19T12:29:23.288Z,33.95
2023-04-19T12:31:50.143Z,34.42
2023-04-19T12:34:17.083Z,34.47
2023-04-19T12:36:43.801Z,34.80
2023-04-19T12:39:10.574Z,35.17
2023-04-19T12:41:37.350Z,35.49
2023-04-19T12:44:04.211Z,35.60
2023-04-19T12:46:31.104Z,36.02
2023-04-19T12:48:58.069Z,36.17
2023-04-19T12:51:24.871Z,36.29
2023-04-19T12:53:52.433Z,36.15
2023-04-19T12:56:19.380Z,36.32
2023-04-19T12:58:46.689Z,36.34
2023-04-19T13:01:13.628Z,36.14
2023-04-19T13:03:40.795Z,36.53
2023-04-19T13:06:07.829Z,36.30
2023-04-19T13:08:44.804Z,35.54
2023-04-19T13:11:13.692Z,34.01
2023-04-19T13:13:40.436Z,32.59
2023-04-19T13:16:08.079Z,31.31
2023-04-19T13:18:35.367Z,30.06
2023-04-19T13:21:02.125Z,29.03
2023-04-19T13:23:28.865Z,28.27
2023-04-19T13:25:55.972Z,27.55
2023-04-19T13:28:22.763Z,26.75
2023-04-19T13:30:49.529Z,26.00
2023-04-19T13:33:16.494Z,25.53
2023-04-19T13:35:45.096Z,25.13
2023-04-19T13:38:11.901Z,24.74
2023-04-19T13:40:38.710Z,24.44
2023-04-19T13:43:05.464Z,24.10
2023-04-19T13:45:32.685Z,23.75
2023-04-19T13:47:59.465Z,23.67
2023-04-19T13:50:26.289Z,23.54
2023-04-19T13:52:53.224Z,23.32
2023-04-19T13:55:20.089Z,23.31
2023-04-19T13:57:46.836Z,22.83
2023-04-19T14:00:14.332Z,22.82
2023-04-19T14:02:42.339Z,22.81
2023-04-19T14:05:09.700Z,22.38
2023-04-19T14:07:37.166Z,22.66
2023-04-19T14:10:04.220Z,22.75
2023-04-19T14:12:31.112Z,22.53
2023-04-19T14:14:57.917Z,22.67
2023-04-19T14:17:24.861Z,22.64
2023-04-19T14:19:51.621Z,22.59
2023-04-19T14:22:18.512Z,22.44
2023-04-19T14:24:46.440Z,22.52
2023-04-19T14:27:13.286Z,22.62
2023-04-19T14:29:40.158Z,22.35
2023-04-19T14:32:21.315Z,22.44
2023-04-19T14:34:51.594Z,22.51
2023-04-19T14:37:18.922Z,22.36
2023-04-19T14:39:46.160Z,22.39
2023-04-19T14:42:13.094Z,22.11
2023-04-19T14:44:40.706Z,22.30
2023-04-19T14:47:07.805Z,21.98
2023-04-19T14:49:34.700Z,21.92
2023-04-19T14:52:01.529Z,22.24
2023-04-19T14:54:28.322Z,22.22
2023-04-19T14:56:55.301Z,22.21
2023-04-19T14:59:22.202Z,22.09
2023-04-19T15:01:49.122Z,22.07
2023-04-19T15:04:16.651Z,22.05
2023-04-19T15:06:43.595Z,21.94
2023-04-19T15:09:10.596Z,21.92
2023-04-19T15:11:37.431Z,21.88
2023-04-19T15:14:04.189Z,21.64
2023-04-19T15:16:31.660Z,21.71
2023-04-19T15:18:58.704Z,21.67
2023-04-19T15:21:25.502Z,21.72
2023-04-19T15:23:52.355Z,21.74
2023-04-19T15:26:19.153Z,21.54
2023-04-19T15:28:46.049Z,21.71
2023-04-19T15:31:13.060Z,21.58
2023-04-19T15:33:40.121Z,21.67
2023-04-19T15:36:07.164Z,21.67
2023-04-19T15:38:34.023Z,21.65
2023-04-19T15:41:04.064Z,21.53
2023-04-19T15:43:30.857Z,21.57
2023-04-19T15:45:57.706Z,21.43
2023-04-19T15:48:24.573Z,21.51
2023-04-19T15:50:51.376Z,21.49
2023-04-19T15:53:18.351Z,21.55
2023-04-19T15:55:47.049Z,21.50
2023-04-19T15:58:13.926Z,21.43
2023-04-19T16:00:41.035Z,21.44
2023-04-19T16:03:09.762Z,21.42
2023-04-19T16:05:36.621Z,21.40
2023-04-19T16:08:09.628Z,21.38
2023-04-19T16:10:36.394Z,21.35
2023-04-19T16:13:06.331Z,21.35
2023-04-19T16:15:34.119Z,21.12
2023-04-19T16:18:01.265Z,21.25
2023-04-19T16:20:28.290Z,21.24
2023-04-19T16:22:58.186Z,21.04
2023-04-19T16:25:24.984Z,21.16
2023-04-19T16:27:52.171Z,21.21
2023-04-19T16:30:18.972Z,21.21
2023-04-19T16:32:45.808Z,21.19
2023-04-19T16:35:12.713Z,20.90
2023-04-19T16:37:39.523Z,21.15
2023-04-19T16:40:10.872Z,21.15
2023-04-19T16:42:38.598Z,21.10
2023-04-19T16:45:06.478Z,21.11
2023-04-19T16:47:33.875Z,20.89
2023-04-19T16:50:01.141Z,20.91
2023-04-19T16:52:28.781Z,21.09
2023-04-19T16:54:55.629Z,21.08
2023-04-19T16:57:23.364Z,21.06
2023-04-19T16:59:50.195Z,21.05
2023-04-19T17:02:17.083Z,21.04
2023-04-19T17:04:44.289Z,21.02
2023-04-19T17:07:11.737Z,21.02
2023-04-19T17:09:38.526Z,21.01
2023-04-19T17:12:05.890Z,20.92
2023-04-19T17:14:34.163Z,21.01
2023-04-19T17:17:01.649Z,21.00
2023-04-19T17:19:28.527Z,21.01
2023-04-19T17:21:55.672Z,21.01
2023-04-19T17:24:22.576Z,20.76
2023-04-19T17:26:50.384Z,20.99
2023-04-19T17:29:17.371Z,20.96
2023-04-19T17:31:44.434Z,20.94
2023-04-19T17:34:11.409Z,20.72
2023-04-19T17:36:38.138Z,20.89
2023-04-19T17:39:06.841Z,20.85
2023-04-19T17:41:34.148Z,20.86
2023-04-19T17:44:00.895Z,20.83
2023-04-19T17:46:27.734Z,20.73
2023-04-19T17:48:55.590Z,20.79
2023-04-19T17:51:22.507Z,20.76
2023-04-19T17:53:49.454Z,20.59
2023-04-19T17:56:16.200Z,20.70
2023-04-19T17:58:42.912Z,20.67
2023-04-19T18:01:10.718Z,20.64
2023-04-19T18:03:38.414Z,20.61
2023-04-19T18:06:06.155Z,20.57
2023-04-19T18:08:33.048Z,20.49
2023-04-19T18:10:59.764Z,20.49
2023-04-19T18:13:26.713Z,20.26
2023-04-19T18:15:53.660Z,20.33
2023-04-19T18:18:20.501Z,20.30
2023-04-19T18:20:47.263Z,20.23
2023-04-19T18:23:14.155Z,20.17
2023-04-19T18:25:41.011Z,19.98
2023-04-19T18:28:07.770Z,19.98
2023-04-19T18:30:36.035Z,19.88
2023-04-19T18:33:02.863Z,19.80
2023-04-19T18:35:29.884Z,19.75
2023-04-19T18:37:56.814Z,19.68
2023-04-19T18:40:23.568Z,19.60
2023-04-19T18:42:50.569Z,19.30
2023-04-19T18:45:18.036Z,19.49
2023-04-19T18:47:44.864Z,19.46
2023-04-19T18:50:12.217Z,19.44
2023-04-19T18:52:39.065Z,19.27
2023-04-19T18:55:06.344Z,19.33
2023-04-19T18:57:34.418Z,19.27
2023-04-19T19:00:01.774Z,19.05
2023-04-19T19:02:28.663Z,19.22
2023-04-19T19:05:01.361Z,19.17
2023-04-19T19:10:01.742Z,18.90
2023-04-19T19:12:30.887Z,19.13
2023-04-19T19:14:57.614Z,18.93
2023-04-19T19:17:28.010Z,19.07
2023-04-19T19:19:55.253Z,19.01
2023-04-19T19:22:27.454Z,18.81
2023-04-19T19:24:55.370Z,18.83
2023-04-19T19:27:22.113Z,18.92
2023-04-19T19:29:48.952Z,18.82
2023-04-19T19:32:16.154Z,18.50
2023-04-19T19:34:54.744Z,18.73
2023-04-19T19:37:23.179Z,18.51
2023-04-19T19:39:52.240Z,18.64
2023-04-19T19:42:19.364Z,18.08
2023-04-19T19:44:46.282Z,18.62
2023-04-19T19:47:13.509Z,18.59
2023-04-19T19:49:55.213Z,18.51
2023-04-19T19:52:32.056Z,18.48
2023-04-19T19:54:59.691Z,18.30
2023-04-19T20:00:12.941Z,17.80
2023-04-19T20:02:55.016Z,18.00
2023-04-19T20:05:23.935Z,18.21
2023-04-19T20:10:20.656Z,18.19
2023-04-19T20:12:47.452Z,18.16
2023-04-19T20:15:14.375Z,18.13
2023-04-19T20:17:41.575Z,17.98
2023-04-19T20:20:09.306Z,17.98
2023-04-19T20:22:36.286Z,18.06
2023-04-19T20:25:03.111Z,17.85
2023-04-19T20:27:29.953Z,18.06
2023-04-19T20:29:56.928Z,18.03
2023-04-19T20:32:23.970Z,18.02
2023-04-19T20:34:52.188Z,17.92
2023-04-19T20:37:19.103Z,18.00
2023-04-19T20:39:45.990Z,17.98
2023-04-19T20:42:12.805Z,17.95
2023-04-19T20:44:39.574Z,18.00
2023-04-19T20:47:06.414Z,17.83
2023-04-19T20:49:33.375Z,18.01
2023-04-19T20:52:00.160Z,18.02
2023-04-19T20:54:27.144Z,17.62
2023-04-19T20:56:54.254Z,17.97
2023-04-19T20:59:20.984Z,18.05
2023-04-19T21:01:47.936Z,17.77
2023-04-19T21:04:14.941Z,18.07
2023-04-19T21:06:41.868Z,17.86
2023-04-19T21:09:08.831Z,18.04
2023-04-19T21:11:35.624Z,18.04
2023-04-19T21:14:02.446Z,17.85
2023-04-19T21:16:29.277Z,18.03
2023-04-19T21:18:56.184Z,17.89
2023-04-19T21:21:23.007Z,18.04
2023-04-19T21:23:49.750Z,17.84
2023-04-19T21:26:16.597Z,18.04
2023-04-19T21:28:43.564Z,17.94
2023-04-19T21:31:10.359Z,17.72
2023-04-19T21:33:37.153Z,17.66
2023-04-19T21:36:04.383Z,17.98
2023-04-19T21:38:31.338Z,17.79
2023-04-19T21:40:58.057Z,17.98
2023-04-19T21:43:25.030Z,17.94
2023-04-19T21:45:51.751Z,18.10
2023-04-19T21:48:18.494Z,17.90
2023-04-19T21:50:45.451Z,18.13
2023-04-19T21:53:12.185Z,18.14
2023-04-19T21:55:38.984Z,17.85
2023-04-19T21:58:06.063Z,17.57
2023-04-19T22:00:32.868Z,18.03
2023-04-19T22:02:59.975Z,17.68
2023-04-19T22:05:27.032Z,18.17
2023-04-19T22:07:55.084Z,18.19
2023-04-19T22:10:22.750Z,18.19
2023-04-19T22:12:57.904Z,17.94
2023-04-19T22:15:26.055Z,18.13
2023-04-19T22:17:53.116Z,17.80
2023-04-19T22:20:20.147Z,17.78
2023-04-19T22:22:46.960Z,17.87
2023-04-19T22:25:14.030Z,18.17
2023-04-19T22:27:40.799Z,18.23
2023-04-19T22:30:08.038Z,18.16
2023-04-19T22:32:35.027Z,17.77
2023-04-19T22:35:01.809Z,18.19
2023-04-19T22:37:28.648Z,18.20
2023-04-19T22:39:55.532Z,18.07
2023-04-19T22:42:22.342Z,18.16
2023-04-19T22:44:49.095Z,18.25
2023-04-19T22:47:16.644Z,18.30
2023-04-19T22:49:43.636Z,18.34
2023-04-19T22:52:11.500Z,18.37
2023-04-19T22:54:38.538Z,18.38
2023-04-19T22:57:05.325Z,18.03
2023-04-19T22:59:32.090Z,18.29
2023-04-19T23:01:59.014Z,18.32
2023-04-19T23:04:25.843Z,18.17
2023-04-19T23:06:53.868Z,18.35
2023-04-19T23:09:20.880Z,18.37
2023-04-19T23:11:48.996Z,18.12
2023-04-19T23:14:18.596Z,18.42
2023-04-19T23:16:47.167Z,18.43
2023-04-19T23:19:15.312Z,18.43
2023-04-19T23:21:42.180Z,18.42
2023-04-19T23:24:09.727Z,18.40
2023-04-19T23:26:36.560Z,18.39
2023-04-19T23:29:03.514Z,18.38
2023-04-19T23:31:30.536Z,18.38
2023-04-19T23:33:57.289Z,18.38
2023-04-19T23:36:24.087Z,18.38
2023-04-19T23:38:50.986Z,18.39
2023-04-19T23:41:17.929Z,18.34
2023-04-19T23:43:46.485Z,18.10
2023-04-19T23:46:13.514Z,18.27
2023-04-19T23:48:40.471Z,18.30
2023-04-19T23:51:07.221Z,17.93
2023-04-19T23:53:34.193Z,18.14
2023-04-19T23:56:01.053Z,18.00
2023-04-19T23:58:27.784Z,17.78
